sensor_id;sensor_type;location;lat;lon;timestamp;temperature;humidity
21001;DHT22;10658;50.920;12.238;2023-09-19T00:02:31;16.90;99.90
21001;DHT22;10658;50.920;12.238;2023-09-19T00:06:33;16.90;99.90
21001;DHT22;10658;50.920;12.238;2023-09-19T00:10:34;16.90;99.90
21001;DHT22;10658;50.920;12.238;2023-09-19T00:14:38;17.00;99.90
21001;DHT22;10658;50.920;12.238;2023-09-19T00:18:39;17.00;99.90
21001;DHT22;10658;50.920;12.238;2023-09-19T00:22:40;16.90;99.90
21001;DHT22;10658;50.920;12.238;2023-09-19T00:26:42;16.90;99.90
21001;DHT22;10658;50.920;12.238;2023-09-19T00:30:44;16.80;99.90
21001;DHT22;10658;50.920;12.238;2023-09-19T00:34:45;16.90;99.90
21001;DHT22;10658;50.920;12.238;2023-09-19T00:38:46;16.90;99.90
21001;DHT22;10658;50.920;12.238;2023-09-19T00:42:48;16.90;99.90
21001;DHT22;10658;50.920;12.238;2023-09-19T00:46:49;16.90;99.90
21001;DHT22;10658;50.920;12.238;2023-09-19T00:50:51;16.90;99.90
21001;DHT22;10658;50.920;12.238;2023-09-19T00:54:52;16.90;99.90
21001;DHT22;10658;50.920;12.238;2023-09-19T00:58:53;16.90;99.90
21001;DHT22;10658;50.920;12.238;2023-09-19T01:02:54;16.80;99.90
21001;DHT22;10658;50.920;12.238;2023-09-19T01:06:55;16.80;99.90
21001;DHT22;10658;50.920;12.238;2023-09-19T01:11:01;16.70;99.90
21001;DHT22;10658;50.920;12.238;2023-09-19T01:15:16;16.70;99.90
21001;DHT22;10658;50.920;12.238;2023-09-19T01:28:30;16.50;99.90
21001;DHT22;10658;50.920;12.238;2023-09-19T01:32:33;16.60;99.90
21001;DHT22;10658;50.920;12.238;2023-09-19T01:36:36;16.50;99.90
21001;DHT22;10658;50.920;12.238;2023-09-19T01:40:41;16.60;99.90
21001;DHT22;10658;50.920;12.238;2023-09-19T01:53:02;16.40;99.90
21001;DHT22;10658;50.920;12.238;2023-09-19T01:57:16;16.40;99.90
21001;DHT22;10658;50.920;12.238;2023-09-19T02:01:23;16.30;99.90
21001;DHT22;10658;50.920;12.238;2023-09-19T02:05:25;16.30;99.90
21001;DHT22;10658;50.920;12.238;2023-09-19T02:09:28;16.30;99.90
21001;DHT22;10658;50.920;12.238;2023-09-19T02:13:28;16.30;99.90
21001;DHT22;10658;50.920;12.238;2023-09-19T02:17:32;16.30;99.90
21001;DHT22;10658;50.920;12.238;2023-09-19T02:21:33;16.30;99.90
21001;DHT22;10658;50.920;12.238;2023-09-19T02:25:34;16.30;99.90
21001;DHT22;10658;50.920;12.238;2023-09-19T02:29:35;16.30;99.90
21001;DHT22;10658;50.920;12.238;2023-09-19T02:33:37;16.20;99.90
21001;DHT22;10658;50.920;12.238;2023-09-19T02:37:38;16.20;99.90
21001;DHT22;10658;50.920;12.238;2023-09-19T02:41:39;16.10;99.90
21001;DHT22;10658;50.920;12.238;2023-09-19T02:45:39;16.00;99.90
21001;DHT22;10658;50.920;12.238;2023-09-19T02:49:40;16.00;99.90
21001;DHT22;10658;50.920;12.238;2023-09-19T02:53:44;16.00;99.90
21001;DHT22;10658;50.920;12.238;2023-09-19T02:57:52;15.80;99.90
21001;DHT22;10658;50.920;12.238;2023-09-19T03:01:54;15.80;99.90
21001;DHT22;10658;50.920;12.238;2023-09-19T03:05:55;15.80;99.90
21001;DHT22;10658;50.920;12.238;2023-09-19T03:09:56;15.80;99.90
21001;DHT22;10658;50.920;12.238;2023-09-19T03:13:57;15.70;99.90
21001;DHT22;10658;50.920;12.238;2023-09-19T03:17:59;15.70;99.90
21001;DHT22;10658;50.920;12.238;2023-09-19T03:22:00;15.70;99.90
21001;DHT22;10658;50.920;12.238;2023-09-19T03:26:01;15.80;99.90
21001;DHT22;10658;50.920;12.238;2023-09-19T03:30:04;15.80;99.90
21001;DHT22;10658;50.920;12.238;2023-09-19T03:34:10;15.80;99.90
21001;DHT22;10658;50.920;12.238;2023-09-19T03:38:11;15.80;99.90
21001;DHT22;10658;50.920;12.238;2023-09-19T03:42:12;15.70;99.90
21001;DHT22;10658;50.920;12.238;2023-09-19T03:46:12;15.80;99.90
21001;DHT22;10658;50.920;12.238;2023-09-19T03:50:16;15.80;99.90
21001;DHT22;10658;50.920;12.238;2023-09-19T03:54:18;15.80;99.90
21001;DHT22;10658;50.920;12.238;2023-09-19T03:58:20;15.80;99.90
21001;DHT22;10658;50.920;12.238;2023-09-19T04:02:21;15.80;99.90
21001;DHT22;10658;50.920;12.238;2023-09-19T04:06:26;15.80;99.90
21001;DHT22;10658;50.920;12.238;2023-09-19T04:10:28;15.90;99.90
21001;DHT22;10658;50.920;12.238;2023-09-19T04:14:29;15.90;99.90
21001;DHT22;10658;50.920;12.238;2023-09-19T04:18:30;16.00;99.90
21001;DHT22;10658;50.920;12.238;2023-09-19T04:22:38;16.00;99.90
21001;DHT22;10658;50.920;12.238;2023-09-19T04:26:40;16.10;99.90
21001;DHT22;10658;50.920;12.238;2023-09-19T04:30:41;16.00;99.90
21001;DHT22;10658;50.920;12.238;2023-09-19T04:34:42;15.90;99.90
21001;DHT22;10658;50.920;12.238;2023-09-19T04:38:43;15.90;99.90
21001;DHT22;10658;50.920;12.238;2023-09-19T04:42:44;15.90;99.90
21001;DHT22;10658;50.920;12.238;2023-09-19T04:46:46;15.90;99.90
21001;DHT22;10658;50.920;12.238;2023-09-19T04:50:48;15.90;99.90
21001;DHT22;10658;50.920;12.238;2023-09-19T04:54:50;15.80;99.90
21001;DHT22;10658;50.920;12.238;2023-09-19T04:58:51;15.70;99.90
21001;DHT22;10658;50.920;12.238;2023-09-19T05:02:52;15.80;99.90
21001;DHT22;10658;50.920;12.238;2023-09-19T05:06:55;15.80;99.90
21001;DHT22;10658;50.920;12.238;2023-09-19T05:10:56;15.70;99.90
21001;DHT22;10658;50.920;12.238;2023-09-19T05:14:57;15.70;99.90
21001;DHT22;10658;50.920;12.238;2023-09-19T05:18:58;15.80;99.90
21001;DHT22;10658;50.920;12.238;2023-09-19T05:23:02;15.80;99.90
21001;DHT22;10658;50.920;12.238;2023-09-19T05:27:04;15.70;99.90
21001;DHT22;10658;50.920;12.238;2023-09-19T05:31:08;15.80;99.90
21001;DHT22;10658;50.920;12.238;2023-09-19T05:35:09;15.70;99.90
21001;DHT22;10658;50.920;12.238;2023-09-19T05:39:10;15.70;99.90
21001;DHT22;10658;50.920;12.238;2023-09-19T05:43:11;15.70;99.90
21001;DHT22;10658;50.920;12.238;2023-09-19T05:47:15;15.70;99.90
21001;DHT22;10658;50.920;12.238;2023-09-19T05:51:16;15.70;99.90
21001;DHT22;10658;50.920;12.238;2023-09-19T05:55:19;15.70;99.90
21001;DHT22;10658;50.920;12.238;2023-09-19T05:59:21;15.60;99.90
21001;DHT22;10658;50.920;12.238;2023-09-19T06:03:22;15.60;99.90
21001;DHT22;10658;50.920;12.238;2023-09-19T06:07:25;15.60;99.90
21001;DHT22;10658;50.920;12.238;2023-09-19T06:11:27;15.70;99.90
21001;DHT22;10658;50.920;12.238;2023-09-19T06:15:28;15.70;99.90
21001;DHT22;10658;50.920;12.238;2023-09-19T06:19:31;15.80;99.90
21001;DHT22;10658;50.920;12.238;2023-09-19T06:23:32;15.90;99.90
21001;DHT22;10658;50.920;12.238;2023-09-19T06:27:33;16.00;99.90
21001;DHT22;10658;50.920;12.238;2023-09-19T06:31:39;16.10;99.90
21001;DHT22;10658;50.920;12.238;2023-09-19T06:35:40;16.30;99.90
21001;DHT22;10658;50.920;12.238;2023-09-19T06:39:42;16.40;99.90
21001;DHT22;10658;50.920;12.238;2023-09-19T06:43:44;16.50;99.90
21001;DHT22;10658;50.920;12.238;2023-09-19T06:47:46;16.60;99.90
21001;DHT22;10658;50.920;12.238;2023-09-19T06:51:54;16.90;99.90
21001;DHT22;10658;50.920;12.238;2023-09-19T06:55:55;17.40;99.90
21001;DHT22;10658;50.920;12.238;2023-09-19T06:59:56;17.90;99.90
21001;DHT22;10658;50.920;12.238;2023-09-19T07:03:58;18.40;99.90
21001;DHT22;10658;50.920;12.238;2023-09-19T07:08:00;18.90;99.90
21001;DHT22;10658;50.920;12.238;2023-09-19T07:12:04;19.30;99.90
21001;DHT22;10658;50.920;12.238;2023-09-19T07:16:06;19.90;99.90
21001;DHT22;10658;50.920;12.238;2023-09-19T07:20:09;20.40;99.90
21001;DHT22;10658;50.920;12.238;2023-09-19T07:24:11;20.80;99.90
21001;DHT22;10658;50.920;12.238;2023-09-19T07:28:15;21.40;99.90
21001;DHT22;10658;50.920;12.238;2023-09-19T07:32:16;21.50;99.90
21001;DHT22;10658;50.920;12.238;2023-09-19T07:36:18;20.70;99.90
21001;DHT22;10658;50.920;12.238;2023-09-19T07:40:19;19.90;99.90
21001;DHT22;10658;50.920;12.238;2023-09-19T07:44:21;19.60;99.90
21001;DHT22;10658;50.920;12.238;2023-09-19T07:48:22;19.70;99.90
21001;DHT22;10658;50.920;12.238;2023-09-19T07:52:25;19.90;99.90
21001;DHT22;10658;50.920;12.238;2023-09-19T07:56:28;19.80;99.90
21001;DHT22;10658;50.920;12.238;2023-09-19T08:00:29;19.80;99.90
21001;DHT22;10658;50.920;12.238;2023-09-19T08:04:31;19.90;99.90
21001;DHT22;10658;50.920;12.238;2023-09-19T08:08:34;20.00;99.90
21001;DHT22;10658;50.920;12.238;2023-09-19T08:12:39;20.00;99.90
21001;DHT22;10658;50.920;12.238;2023-09-19T08:16:46;19.80;99.90
21001;DHT22;10658;50.920;12.238;2023-09-19T08:20:52;19.80;99.90
21001;DHT22;10658;50.920;12.238;2023-09-19T08:24:54;19.80;99.90
21001;DHT22;10658;50.920;12.238;2023-09-19T08:28:57;19.60;99.90
21001;DHT22;10658;50.920;12.238;2023-09-19T08:32:59;19.50;99.90
21001;DHT22;10658;50.920;12.238;2023-09-19T08:37:01;19.30;99.90
21001;DHT22;10658;50.920;12.238;2023-09-19T08:41:06;19.30;99.90
21001;DHT22;10658;50.920;12.238;2023-09-19T08:45:10;19.30;99.90
21001;DHT22;10658;50.920;12.238;2023-09-19T08:49:39;19.40;99.90
21001;DHT22;10658;50.920;12.238;2023-09-19T08:58:03;19.40;99.90
21001;DHT22;10658;50.920;12.238;2023-09-19T09:02:10;19.40;99.90
21001;DHT22;10658;50.920;12.238;2023-09-19T09:06:14;20.00;99.90
21001;DHT22;10658;50.920;12.238;2023-09-19T09:10:18;20.30;99.90
21001;DHT22;10658;50.920;12.238;2023-09-19T09:14:23;20.40;99.90
21001;DHT22;10658;50.920;12.238;2023-09-19T09:18:25;20.50;99.90
21001;DHT22;10658;50.920;12.238;2023-09-19T09:22:26;20.70;99.90
21001;DHT22;10658;50.920;12.238;2023-09-19T09:30:41;21.20;99.90
21001;DHT22;10658;50.920;12.238;2023-09-19T09:34:42;21.10;99.90
21001;DHT22;10658;50.920;12.238;2023-09-19T09:38:45;20.80;99.90
21001;DHT22;10658;50.920;12.238;2023-09-19T09:42:47;20.80;99.90
21001;DHT22;10658;50.920;12.238;2023-09-19T09:46:48;20.80;99.90
21001;DHT22;10658;50.920;12.238;2023-09-19T09:50:50;20.80;99.90
21001;DHT22;10658;50.920;12.238;2023-09-19T09:55:01;20.70;99.90
21001;DHT22;10658;50.920;12.238;2023-09-19T09:59:05;20.40;99.90
21001;DHT22;10658;50.920;12.238;2023-09-19T10:03:19;20.40;99.90
21001;DHT22;10658;50.920;12.238;2023-09-19T10:07:29;20.00;99.90
21001;DHT22;10658;50.920;12.238;2023-09-19T10:11:41;19.80;99.90
21001;DHT22;10658;50.920;12.238;2023-09-19T10:15:46;19.90;99.90
21001;DHT22;10658;50.920;12.238;2023-09-19T10:19:55;20.20;99.90
21001;DHT22;10658;50.920;12.238;2023-09-19T10:24:00;20.60;99.90
21001;DHT22;10658;50.920;12.238;2023-09-19T10:28:06;20.80;99.90
21001;DHT22;10658;50.920;12.238;2023-09-19T10:32:14;20.90;99.90
21001;DHT22;10658;50.920;12.238;2023-09-19T10:36:21;20.90;99.90
21001;DHT22;10658;50.920;12.238;2023-09-19T10:40:27;20.90;99.90
21001;DHT22;10658;50.920;12.238;2023-09-19T10:44:32;20.80;99.90
21001;DHT22;10658;50.920;12.238;2023-09-19T10:48:34;21.20;99.90
21001;DHT22;10658;50.920;12.238;2023-09-19T10:52:40;21.10;99.90
21001;DHT22;10658;50.920;12.238;2023-09-19T10:56:48;21.10;99.90
21001;DHT22;10658;50.920;12.238;2023-09-19T11:00:58;21.10;99.90
21001;DHT22;10658;50.920;12.238;2023-09-19T11:05:13;20.90;99.90
21001;DHT22;10658;50.920;12.238;2023-09-19T11:09:14;21.10;99.90
21001;DHT22;10658;50.920;12.238;2023-09-19T11:13:29;21.20;99.90
21001;DHT22;10658;50.920;12.238;2023-09-19T11:17:38;21.30;99.90
21001;DHT22;10658;50.920;12.238;2023-09-19T11:21:52;21.10;99.90
21001;DHT22;10658;50.920;12.238;2023-09-19T11:25:55;21.10;99.90
21001;DHT22;10658;50.920;12.238;2023-09-19T11:30:26;21.00;99.90
21001;DHT22;10658;50.920;12.238;2023-09-19T11:42:48;21.30;99.90
21001;DHT22;10658;50.920;12.238;2023-09-19T11:46:55;21.60;99.90
21001;DHT22;10658;50.920;12.238;2023-09-19T11:51:00;21.90;99.90
21001;DHT22;10658;50.920;12.238;2023-09-19T11:55:03;22.00;99.90
21001;DHT22;10658;50.920;12.238;2023-09-19T11:59:06;21.90;99.90
21001;DHT22;10658;50.920;12.238;2023-09-19T12:03:10;22.30;99.90
21001;DHT22;10658;50.920;12.238;2023-09-19T12:07:13;22.00;99.90
21001;DHT22;10658;50.920;12.238;2023-09-19T12:11:17;21.90;99.90
21001;DHT22;10658;50.920;12.238;2023-09-19T12:15:24;22.20;99.90
21001;DHT22;10658;50.920;12.238;2023-09-19T12:19:29;22.10;99.90
21001;DHT22;10658;50.920;12.238;2023-09-19T12:23:30;22.20;99.90
21001;DHT22;10658;50.920;12.238;2023-09-19T12:27:44;22.40;99.90
21001;DHT22;10658;50.920;12.238;2023-09-19T12:31:56;22.50;99.90
21001;DHT22;10658;50.920;12.238;2023-09-19T12:36:04;22.70;99.90
21001;DHT22;10658;50.920;12.238;2023-09-19T12:40:22;22.70;99.90
21001;DHT22;10658;50.920;12.238;2023-09-19T12:44:28;22.70;99.90
21001;DHT22;10658;50.920;12.238;2023-09-19T12:48:30;22.40;99.90
21001;DHT22;10658;50.920;12.238;2023-09-19T12:52:39;21.80;99.90
21001;DHT22;10658;50.920;12.238;2023-09-19T12:56:42;21.50;99.90
21001;DHT22;10658;50.920;12.238;2023-09-19T13:00:46;21.20;99.90
21001;DHT22;10658;50.920;12.238;2023-09-19T13:04:53;21.20;99.90
21001;DHT22;10658;50.920;12.238;2023-09-19T13:09:08;21.40;99.90
21001;DHT22;10658;50.920;12.238;2023-09-19T13:13:23;21.50;99.90
21001;DHT22;10658;50.920;12.238;2023-09-19T13:17:45;21.50;99.90
21001;DHT22;10658;50.920;12.238;2023-09-19T13:21:46;21.50;99.90
21001;DHT22;10658;50.920;12.238;2023-09-19T13:25:50;21.50;99.90
21001;DHT22;10658;50.920;12.238;2023-09-19T13:29:51;21.50;99.90
21001;DHT22;10658;50.920;12.238;2023-09-19T13:33:52;21.50;99.90
21001;DHT22;10658;50.920;12.238;2023-09-19T13:37:53;21.50;99.90
21001;DHT22;10658;50.920;12.238;2023-09-19T13:41:55;21.50;99.90
21001;DHT22;10658;50.920;12.238;2023-09-19T13:45:57;21.80;99.90
21001;DHT22;10658;50.920;12.238;2023-09-19T13:49:59;21.40;99.90
21001;DHT22;10658;50.920;12.238;2023-09-19T13:54:01;21.40;99.90
21001;DHT22;10658;50.920;12.238;2023-09-19T13:58:03;21.60;99.90
21001;DHT22;10658;50.920;12.238;2023-09-19T14:02:07;21.70;99.90
21001;DHT22;10658;50.920;12.238;2023-09-19T14:06:08;21.60;99.90
21001;DHT22;10658;50.920;12.238;2023-09-19T14:10:11;21.50;99.90
21001;DHT22;10658;50.920;12.238;2023-09-19T14:14:12;21.50;99.90
21001;DHT22;10658;50.920;12.238;2023-09-19T14:18:14;21.60;99.90
21001;DHT22;10658;50.920;12.238;2023-09-19T14:22:15;22.00;99.90
21001;DHT22;10658;50.920;12.238;2023-09-19T14:26:17;22.50;99.90
21001;DHT22;10658;50.920;12.238;2023-09-19T14:30:19;22.70;99.90
21001;DHT22;10658;50.920;12.238;2023-09-19T14:34:21;22.70;99.90
21001;DHT22;10658;50.920;12.238;2023-09-19T14:38:22;22.90;99.90
21001;DHT22;10658;50.920;12.238;2023-09-19T14:42:23;22.90;99.90
21001;DHT22;10658;50.920;12.238;2023-09-19T14:46:24;22.60;99.90
21001;DHT22;10658;50.920;12.238;2023-09-19T14:50:25;21.90;99.90
21001;DHT22;10658;50.920;12.238;2023-09-19T14:54:27;21.70;99.90
21001;DHT22;10658;50.920;12.238;2023-09-19T14:58:31;21.40;99.90
21001;DHT22;10658;50.920;12.238;2023-09-19T15:02:33;21.30;99.90
21001;DHT22;10658;50.920;12.238;2023-09-19T15:06:34;21.20;99.90
21001;DHT22;10658;50.920;12.238;2023-09-19T15:10:36;21.20;99.90
21001;DHT22;10658;50.920;12.238;2023-09-19T15:14:37;21.10;99.90
21001;DHT22;10658;50.920;12.238;2023-09-19T15:18:42;21.10;99.90
21001;DHT22;10658;50.920;12.238;2023-09-19T15:22:43;20.90;99.90
21001;DHT22;10658;50.920;12.238;2023-09-19T15:26:44;20.80;99.90
21001;DHT22;10658;50.920;12.238;2023-09-19T15:30:47;20.70;99.90
21001;DHT22;10658;50.920;12.238;2023-09-19T15:34:48;20.60;99.90
21001;DHT22;10658;50.920;12.238;2023-09-19T15:39:02;20.60;99.90
21001;DHT22;10658;50.920;12.238;2023-09-19T15:43:06;20.50;99.90
21001;DHT22;10658;50.920;12.238;2023-09-19T15:47:07;20.40;99.90
21001;DHT22;10658;50.920;12.238;2023-09-19T15:51:09;20.40;99.90
21001;DHT22;10658;50.920;12.238;2023-09-19T15:55:12;20.30;99.90
21001;DHT22;10658;50.920;12.238;2023-09-19T15:59:14;20.20;99.90
21001;DHT22;10658;50.920;12.238;2023-09-19T16:03:15;20.10;99.90
21001;DHT22;10658;50.920;12.238;2023-09-19T16:07:18;20.10;99.90
21001;DHT22;10658;50.920;12.238;2023-09-19T16:11:20;20.00;99.90
21001;DHT22;10658;50.920;12.238;2023-09-19T16:15:21;19.90;99.90
21001;DHT22;10658;50.920;12.238;2023-09-19T16:19:22;19.90;99.90
21001;DHT22;10658;50.920;12.238;2023-09-19T16:23:24;19.80;99.90
21001;DHT22;10658;50.920;12.238;2023-09-19T16:27:25;19.70;99.90
21001;DHT22;10658;50.920;12.238;2023-09-19T16:31:27;19.60;99.90
21001;DHT22;10658;50.920;12.238;2023-09-19T16:35:28;19.50;99.90
21001;DHT22;10658;50.920;12.238;2023-09-19T16:39:30;19.40;99.90
21001;DHT22;10658;50.920;12.238;2023-09-19T16:43:31;19.20;99.90
21001;DHT22;10658;50.920;12.238;2023-09-19T16:47:35;19.20;99.90
21001;DHT22;10658;50.920;12.238;2023-09-19T16:51:36;19.10;99.90
21001;DHT22;10658;50.920;12.238;2023-09-19T16:55:38;19.00;99.90
21001;DHT22;10658;50.920;12.238;2023-09-19T16:59:39;18.80;99.90
21001;DHT22;10658;50.920;12.238;2023-09-19T17:03:41;18.80;99.90
21001;DHT22;10658;50.920;12.238;2023-09-19T17:07:42;18.60;99.90
21001;DHT22;10658;50.920;12.238;2023-09-19T17:11:43;18.60;99.90
21001;DHT22;10658;50.920;12.238;2023-09-19T17:15:46;18.40;99.90
21001;DHT22;10658;50.920;12.238;2023-09-19T17:19:48;18.20;99.90
21001;DHT22;10658;50.920;12.238;2023-09-19T17:23:49;18.10;99.90
21001;DHT22;10658;50.920;12.238;2023-09-19T17:27:50;18.00;99.90
21001;DHT22;10658;50.920;12.238;2023-09-19T17:31:51;17.80;99.90
21001;DHT22;10658;50.920;12.238;2023-09-19T17:36:09;17.80;99.90
21001;DHT22;10658;50.920;12.238;2023-09-19T17:40:11;17.70;99.90
21001;DHT22;10658;50.920;12.238;2023-09-19T17:44:12;17.60;99.90
21001;DHT22;10658;50.920;12.238;2023-09-19T17:48:13;17.40;99.90
21001;DHT22;10658;50.920;12.238;2023-09-19T17:52:14;17.40;99.90
21001;DHT22;10658;50.920;12.238;2023-09-19T17:56:16;17.30;99.90
21001;DHT22;10658;50.920;12.238;2023-09-19T18:00:17;17.20;99.90
21001;DHT22;10658;50.920;12.238;2023-09-19T18:04:18;17.10;99.90
21001;DHT22;10658;50.920;12.238;2023-09-19T18:08:20;16.90;99.90
21001;DHT22;10658;50.920;12.238;2023-09-19T18:12:21;16.70;99.90
21001;DHT22;10658;50.920;12.238;2023-09-19T18:16:22;16.40;99.90
21001;DHT22;10658;50.920;12.238;2023-09-19T18:20:28;16.30;99.90
21001;DHT22;10658;50.920;12.238;2023-09-19T18:24:29;16.20;99.90
21001;DHT22;10658;50.920;12.238;2023-09-19T18:28:30;16.10;99.90
21001;DHT22;10658;50.920;12.238;2023-09-19T18:32:30;16.00;99.90
21001;DHT22;10658;50.920;12.238;2023-09-19T18:36:35;15.90;99.90
21001;DHT22;10658;50.920;12.238;2023-09-19T18:40:41;15.80;99.90
21001;DHT22;10658;50.920;12.238;2023-09-19T18:44:42;15.70;99.90
21001;DHT22;10658;50.920;12.238;2023-09-19T18:48:44;15.70;99.90
21001;DHT22;10658;50.920;12.238;2023-09-19T18:52:45;15.70;99.90
21001;DHT22;10658;50.920;12.238;2023-09-19T18:57:07;15.50;99.90
21001;DHT22;10658;50.920;12.238;2023-09-19T19:01:10;15.50;99.90
21001;DHT22;10658;50.920;12.238;2023-09-19T19:05:11;15.60;99.90
21001;DHT22;10658;50.920;12.238;2023-09-19T19:09:13;15.70;99.90
21001;DHT22;10658;50.920;12.238;2023-09-19T19:13:15;15.70;99.90
21001;DHT22;10658;50.920;12.238;2023-09-19T19:17:15;15.60;99.90
21001;DHT22;10658;50.920;12.238;2023-09-19T19:21:16;15.60;99.90
21001;DHT22;10658;50.920;12.238;2023-09-19T19:25:17;15.60;99.90
21001;DHT22;10658;50.920;12.238;2023-09-19T19:29:19;15.50;99.90
21001;DHT22;10658;50.920;12.238;2023-09-19T19:33:21;15.60;99.90
21001;DHT22;10658;50.920;12.238;2023-09-19T19:37:22;15.60;99.90
21001;DHT22;10658;50.920;12.238;2023-09-19T19:41:23;15.60;99.90
21001;DHT22;10658;50.920;12.238;2023-09-19T19:45:24;15.80;99.90
21001;DHT22;10658;50.920;12.238;2023-09-19T19:49:24;15.80;99.90
21001;DHT22;10658;50.920;12.238;2023-09-19T19:53:26;15.80;99.90
21001;DHT22;10658;50.920;12.238;2023-09-19T19:57:27;15.80;99.90
21001;DHT22;10658;50.920;12.238;2023-09-19T20:01:28;15.90;99.90
21001;DHT22;10658;50.920;12.238;2023-09-19T20:05:30;15.90;99.90
21001;DHT22;10658;50.920;12.238;2023-09-19T20:09:30;15.90;99.90
21001;DHT22;10658;50.920;12.238;2023-09-19T20:13:31;15.80;99.90
21001;DHT22;10658;50.920;12.238;2023-09-19T20:17:32;15.80;99.90
21001;DHT22;10658;50.920;12.238;2023-09-19T20:21:33;15.60;99.90
21001;DHT22;10658;50.920;12.238;2023-09-19T20:25:36;15.60;99.90
21001;DHT22;10658;50.920;12.238;2023-09-19T20:29:37;15.50;99.90
21001;DHT22;10658;50.920;12.238;2023-09-19T20:33:39;15.30;99.90
21001;DHT22;10658;50.920;12.238;2023-09-19T20:37:40;15.30;99.90
21001;DHT22;10658;50.920;12.238;2023-09-19T20:41:41;15.30;99.90
21001;DHT22;10658;50.920;12.238;2023-09-19T20:45:42;15.30;99.90
21001;DHT22;10658;50.920;12.238;2023-09-19T20:49:43;15.30;99.90
21001;DHT22;10658;50.920;12.238;2023-09-19T20:53:45;15.40;99.90
21001;DHT22;10658;50.920;12.238;2023-09-19T20:57:46;15.40;99.90
21001;DHT22;10658;50.920;12.238;2023-09-19T21:01:47;15.40;99.90
21001;DHT22;10658;50.920;12.238;2023-09-19T21:05:47;15.40;99.90
21001;DHT22;10658;50.920;12.238;2023-09-19T21:09:48;15.40;99.90
21001;DHT22;10658;50.920;12.238;2023-09-19T21:13:49;15.40;99.90
21001;DHT22;10658;50.920;12.238;2023-09-19T21:17:51;15.30;99.90
21001;DHT22;10658;50.920;12.238;2023-09-19T21:21:52;15.20;99.90
21001;DHT22;10658;50.920;12.238;2023-09-19T21:25:54;15.20;99.90
21001;DHT22;10658;50.920;12.238;2023-09-19T21:29:55;15.10;99.90
21001;DHT22;10658;50.920;12.238;2023-09-19T21:33:56;15.10;99.90
21001;DHT22;10658;50.920;12.238;2023-09-19T21:37:56;15.10;99.90
21001;DHT22;10658;50.920;12.238;2023-09-19T21:41:57;15.10;99.90
21001;DHT22;10658;50.920;12.238;2023-09-19T21:45:58;15.10;99.90
21001;DHT22;10658;50.920;12.238;2023-09-19T21:49:59;15.20;99.90
21001;DHT22;10658;50.920;12.238;2023-09-19T21:54:00;15.20;99.90
21001;DHT22;10658;50.920;12.238;2023-09-19T21:58:03;15.20;99.90
21001;DHT22;10658;50.920;12.238;2023-09-19T22:02:04;15.10;99.90
21001;DHT22;10658;50.920;12.238;2023-09-19T22:06:09;15.10;99.90
21001;DHT22;10658;50.920;12.238;2023-09-19T22:10:10;15.10;99.90
21001;DHT22;10658;50.920;12.238;2023-09-19T22:14:11;15.10;99.90
21001;DHT22;10658;50.920;12.238;2023-09-19T22:18:12;15.10;99.90
21001;DHT22;10658;50.920;12.238;2023-09-19T22:22:12;15.10;99.90
21001;DHT22;10658;50.920;12.238;2023-09-19T22:26:15;15.20;99.90
21001;DHT22;10658;50.920;12.238;2023-09-19T22:30:20;15.10;99.90
21001;DHT22;10658;50.920;12.238;2023-09-19T22:34:21;15.10;99.90
21001;DHT22;10658;50.920;12.238;2023-09-19T22:38:22;15.10;99.90
21001;DHT22;10658;50.920;12.238;2023-09-19T22:42:23;15.10;99.90
21001;DHT22;10658;50.920;12.238;2023-09-19T22:46:25;15.00;99.90
21001;DHT22;10658;50.920;12.238;2023-09-19T22:50:29;15.00;99.90
21001;DHT22;10658;50.920;12.238;2023-09-19T22:54:30;15.00;99.90
21001;DHT22;10658;50.920;12.238;2023-09-19T22:58:40;15.10;99.90
21001;DHT22;10658;50.920;12.238;2023-09-19T23:02:41;15.20;99.90
21001;DHT22;10658;50.920;12.238;2023-09-19T23:06:47;15.20;99.90
21001;DHT22;10658;50.920;12.238;2023-09-19T23:10:48;15.20;99.90
21001;DHT22;10658;50.920;12.238;2023-09-19T23:14:51;15.10;99.90
21001;DHT22;10658;50.920;12.238;2023-09-19T23:18:54;15.10;99.90
21001;DHT22;10658;50.920;12.238;2023-09-19T23:22:56;15.20;99.90
21001;DHT22;10658;50.920;12.238;2023-09-19T23:26:58;15.10;99.90
21001;DHT22;10658;50.920;12.238;2023-09-19T23:30:59;15.00;99.90
21001;DHT22;10658;50.920;12.238;2023-09-19T23:35:00;15.00;99.90
21001;DHT22;10658;50.920;12.238;2023-09-19T23:39:02;14.90;99.90
21001;DHT22;10658;50.920;12.238;2023-09-19T23:43:04;14.90;99.90
21001;DHT22;10658;50.920;12.238;2023-09-19T23:47:12;14.90;99.90
21001;DHT22;10658;50.920;12.238;2023-09-19T23:51:13;14.80;99.90
21001;DHT22;10658;50.920;12.238;2023-09-19T23:55:20;14.80;99.90
21001;DHT22;10658;50.920;12.238;2023-09-19T23:59:25;14.80;99.90
